Estaciones cercanas a Meteocoruna.es

 

LECO - La Coruna/Alvedro, Espana
Distancia desde EA1HNP Meteo: NNE 12km
Actualización: 07/02/2023 22:30
Poco nuboso
Poco nuboso
 Viento del ENE
Viento: ENE 22 km/h, Racha: 43 km/h
Temperatura: 5°C
Sensacion: 1°C
Rocío: 0°C
Humedad: 70%
Barómetro: 1022 hPa
Nubes: Poco nuboso
Visibilidad: 10 km
Detalle de nubes: Poco nuboso 762 m
2023/02/07 21:30 LECO 072130Z 06012G23KT 9999 FEW025 05/M00 Q1022 TEMPO 3000 RA
LEST - Santiago/Labacolla, Espana
Distancia desde EA1HNP Meteo: S 32km
Actualización: 07/02/2023 22:30
Algo nuboso
Algo nuboso
 Viento del NNE
Viento: NNE 19 km/h
Temperatura: 3°C
Sensacion: -2°C
Rocío: 0°C
Humedad: 81%
Barómetro: 1020 hPa
Nubes: Algo nuboso
Visibilidad: 10 km
Detalle de nubes: Poco nuboso 549 m
Algo nuboso 853 m
2023/02/07 21:30 LEST 072130Z 03010KT 360V080 9999 FEW018 SCT028 03/M00 Q1020 NOSIG